Latest Coastal Weather Observations for Proserpine

IDQ60701

Issued at 10:41 pm EST Saturday 10 December 2016 (issued every 10 minutes, with the page automatically refreshed every 10 minutes)

About coastal observations | Map of coastal stations | Coastal observations for QLD | Marine services | Other Formats
Station Details ID: 033247 Name: PROSERPINE AIRPORT Lat: -20.49 Lon: 148.56 Height: 19.7 m
Data from the previous 72 hours. | See also: Recent months at Proserpine
Date/Time
EST
Temp
°C
Wind Pressure Rain since
9am
mm
Weather Cloud Vis
km
Sea
Height
m
Swell
Dir  Spd
kts
Gust
kts
hPa Trend Height
m
Period
s
Dir
10/10:30pm 26.8 ESE 10 14 1014.9 - 0.0 - Partly cloudy 10 - - - -
10/10:00pm 26.8 ESE 11 16 1014.7 - 0.0 - Partly cloudy 10 - - - -
10/09:30pm 27.1 ESE 11 15 1014.6 - 0.0 - Partly cloudy 10 - - - -
10/09:00pm 27.3 ESE 11 16 1014.5 - 0.0 - Cloudy 10 - - - -
10/08:30pm 27.2 SE 10 16 1014.2 - 0.0 - Partly cloudy 10 - - - -
10/08:00pm 27.1 ESE 8 13 1013.9 - 0.0 - Partly cloudy 10 - - - -
10/07:30pm 27.2 ESE 9 12 1013.6 - 0.0 - Partly cloudy 10 - - - -
10/07:00pm 27.2 ESE 9 13 1013.2 - 0.0 - - 10 - - - -
10/06:30pm 27.2 ESE 10 15 1012.7 - 0.0 - Partly cloudy 10 - - - -
10/06:00pm 27.6 E 10 14 1012.0 - 0.0 - Partly cloudy 10 - - - -
10/05:30pm 27.9 E 13 20 1011.7 - 0.0 - - 10 - - - -
10/05:00pm 28.3 ESE 14 18 1011.3 - 0.0 - - 10 - - - -
10/04:30pm 28.8 ESE 14 18 1011.4 - 0.0 - - 10 - - - -
10/04:00pm 29.0 ESE 13 19 1011.6 - 0.0 - - 10 - - - -
10/03:30pm 29.5 ESE 12 18 1011.8 - 0.0 - - 10 - - - -
10/03:00pm 29.4 ESE 12 16 1012.2 - 0.0 - Cloudy 10 - - - -
10/02:30pm 29.9 ESE 13 16 1012.4 - 0.0 - - 10 - - - -
10/02:00pm 30.1 ESE 13 18 1012.8 - 0.0 - - 10 - - - -
10/01:30pm 31.0 ESE 12 17 1013.1 - 0.0 - - 10 - - - -
10/01:00pm 31.3 SE 14 19 1013.0 - 0.0 - - 10 - - - -
10/12:30pm 31.5 ESE 14 21 1013.0 - 0.0 - - 10 - - - -
10/12:00pm 32.1 ESE 12 17 1013.1 - 0.0 - - 10 - - - -
10/11:30am 30.8 ESE 13 19 1013.5 - 0.0 - Partly cloudy 10 - - - -
10/11:00am 29.9 ESE 13 17 1013.7 - 0.0 - Partly cloudy 10 - - - -
10/10:30am 31.3 ESE 11 16 1013.7 - 0.0 - Partly cloudy 10 - - - -
10/10:00am 29.3 SE 10 14 1014.0 - 0.0 - Partly cloudy 10 - - - -
10/09:30am 28.7 ESE 10 13 1014.0 - 0.0 - Partly cloudy 10 - - - -
10/09:00am 27.8 ESE 10 13 1014.1 - 0.0 - Cloudy 10 - - - -
10/08:30am 27.9 ESE 8 10 1014.0 - 0.0 - Partly cloudy 10 - - - -
10/08:00am 28.4 ESE 8 11 1013.8 - 0.0 - Partly cloudy 10 - - - -
10/07:30am 27.4 SE 6 9 1013.7 - 0.0 - Partly cloudy 10 - - - -
10/07:00am 26.7 S 5 7 1013.3 - 0.0 - - 10 - - - -
10/06:30am 25.2 SSW 4 5 1012.9 - 0.0 - Partly cloudy 10 - - - -
10/06:00am 24.0 SSW 5 5 1012.7 - 0.0 - - 10 - - - -
10/05:30am 23.5 WSW 3 4 1012.4 - 0.0 - - 10 - - - -
10/05:00am 23.6 SSW 3 3 1011.9 - 0.0 - - 10 - - - -
10/04:30am 23.7 CALM 0 0 1011.5 - 0.0 - - 10 - - - -
10/04:00am 24.0 CALM 0 0 1010.7 - 0.0 - - 10 - - - -
10/03:30am 24.2 CALM 0 0 1010.9 - 0.0 - - 10 - - - -
10/03:00am 24.0 S 2 5 1011.2 - 0.0 - Cloudy 10 - - - -
10/02:30am 24.3 CALM 0 0 1011.2 - 0.0 - - 10 - - - -
10/02:00am 24.3 CALM 0 5 1011.4 - 0.0 - - 10 - - - -
10/01:30am 24.5 CALM 0 0 1011.6 - 0.0 - - 10 - - - -
10/01:00am 24.7 WNW 3 4 1011.9 - 0.0 - - 10 - - - -
10/12:30am 24.9 N 1 3 1012.2 - 0.0 - Partly cloudy 10 - - - -
10/12:00am 25.7 CALM 0 0 1012.6 - 0.0 - Mostly cloudy 10 - - - -
 
Date/Time
EST
Temp
°C
Wind Pressure Rain since
9am
mm
Weather Cloud Vis
km
Sea
Height
m
Swell
Dir  Spd
kts
Gust
kts
hPa Trend Height
m
Period
s
Dir
09/11:30pm 25.5 SSW 4 5 1013.1 - 0.0 - Partly cloudy 10 - - - -
09/11:00pm 25.3 S 4 5 1013.1 - 0.0 - - 10 - - - -
09/10:30pm 25.4 S 4 5 1013.0 - 0.0 - - 10 - - - -
09/10:00pm 25.7 SE 4 5 1013.0 - 0.0 - - 10 - - - -
09/09:30pm 25.9 NE 4 5 1012.3 - 0.0 - - 10 - - - -
09/09:00pm 26.2 CALM 0 3 1012.0 - 0.0 - Mostly cloudy 10 - - - -
09/08:30pm 26.0 NNE 3 5 1011.0 - 0.0 - - 10 - - - -
09/08:00pm 26.6 N 4 6 1010.9 - 0.0 - Partly cloudy 10 - - - -
09/07:30pm 26.8 N 5 7 1010.7 - 0.0 - - 10 - - - -
09/07:00pm 27.2 NNE 7 11 1010.2 - 0.0 - - 10 - - - -
09/06:30pm 27.9 NNE 7 11 1010.0 - 0.0 - - 10 - - - -
09/06:00pm 28.4 NNE 9 13 1009.4 - 0.0 - - 10 - - - -
09/05:30pm 29.4 NNE 9 11 1008.9 - 0.0 - Partly cloudy 10 - - - -
09/05:00pm 31.0 N 10 13 1008.5 - 0.0 - - 10 - - - -
09/04:30pm 31.6 NNE 9 13 1008.2 - 0.0 - Partly cloudy 10 - - - -
09/04:00pm 31.9 NNE 9 14 1008.1 - 0.0 - Partly cloudy 10 - - - -
09/03:30pm 33.9 NNE 8 12 1008.1 - 0.0 - Partly cloudy 10 - - - -
09/03:00pm 32.1 NNE 9 13 1008.4 - 0.0 - Cloudy 10 - - - -
09/02:30pm 32.4 N 9 15 1008.5 - 0.0 - Partly cloudy 10 - - - -
09/02:00pm 32.9 NNE 8 13 1008.9 - 0.0 - Partly cloudy 10 - - - -
09/01:30pm 34.3 ENE 10 18 1008.9 - 0.0 - Partly cloudy 10 - - - -
09/01:00pm 33.9 ENE 9 15 1009.4 - 0.0 - Partly cloudy 10 - - - -
09/12:30pm 34.3 E 10 16 1009.7 - 0.0 - Partly cloudy 10 - - - -
09/12:00pm 34.6 ENE 11 18 1009.8 - 0.0 - Mostly clear 10 - - - -
09/11:30am 32.2 E 9 14 1010.2 - 0.0 - Partly cloudy 10 - - - -
09/11:00am 31.7 WNW 5 9 1010.6 - 0.0 - Cloudy 10 - - - -
09/10:30am 33.0 NE 5 10 1010.9 - 0.0 - Partly cloudy 10 - - - -
09/10:00am 31.9 N 5 9 1011.0 - 0.0 - - 10 - - - -
09/09:30am 30.8 NE 5 8 1011.2 - 0.0 - Partly cloudy 10 - - - -
09/09:00am 30.6 ESE 4 7 1011.7 - 0.0 - Cloudy 10 - - - -
09/08:30am 28.5 NE 5 8 1011.9 - 0.0 - Partly cloudy 10 - - - -
09/08:00am 27.6 S 5 8 1012.3 - 0.0 - Partly cloudy 10 - - - -
09/07:30am 27.2 SSW 3 5 1011.6 - 0.0 - - 10 - - - -
09/07:00am 25.5 CALM 0 0 1011.2 - 0.0 - - 10 - - - -
09/06:30am 23.0 CALM 0 0 1011.2 - 0.0 - - 10 - - - -
09/06:00am 21.0 CALM 0 0 1010.9 - 0.0 - - 10 - - - -
09/05:30am 20.1 CALM 0 0 1010.6 - 0.0 - - 10 - - - -
09/05:00am 20.3 CALM 0 0 1010.3 - 0.0 - - 10 - - - -
09/04:30am 20.3 CALM 0 0 1009.8 - 0.0 - Partly cloudy 10 - - - -
09/04:00am 20.4 CALM 0 0 1009.6 - 0.0 - - 10 - - - -
09/03:30am 20.6 CALM 0 0 1009.5 - 0.0 - - 10 - - - -
09/03:00am 20.6 CALM 0 0 1009.6 - 0.0 - - 10 - - - -
09/02:30am 20.7 SW 2 3 1009.7 - 0.0 - - 10 - - - -
09/02:00am 20.9 CALM 0 3 1009.9 - 0.0 - - 10 - - - -
09/01:30am 21.1 SSW 2 5 1010.1 - 0.0 - - 10 - - - -
09/01:00am 21.1 CALM 0 0 1010.3 - 0.0 - - 10 - - - -
09/12:30am 21.3 CALM 0 0 1010.7 - 0.0 - - 10 - - - -
09/12:00am 21.5 CALM 0 0 1011.2 - 0.0 - - 10 - - - -
 
Date/Time
EST
Temp
°C
Wind Pressure Rain since
9am
mm
Weather Cloud Vis
km
Sea
Height
m
Swell
Dir  Spd
kts
Gust
kts
hPa Trend Height
m
Period
s
Dir
08/11:30pm 21.7 S 2 4 1011.5 - 0.0 - - 10 - - - -
08/11:00pm 22.0 CALM 0 0 1011.8 - 0.0 - - 10 - - - -
08/10:30pm 22.4 CALM 0 0 1011.6 - 0.0 - - 10 - - - -
08/10:00pm 22.5 CALM 0 0 1011.6 - 0.0 - - 10 - - - -
08/09:30pm 22.8 CALM 0 0 1011.3 - 0.0 - - 10 - - - -
08/09:00pm 23.4 CALM 0 0 1011.0 - 0.0 - - 10 - - - -
08/08:30pm 24.8 NNW 3 4 1010.8 - 0.0 - - 10 - - - -
08/08:00pm 24.8 NNW 4 5 1010.6 - 0.0 - - 10 - - - -
08/07:30pm 25.5 N 4 7 1010.2 - 0.0 - - 10 - - - -
08/07:00pm 25.9 NNE 6 8 1009.9 - 0.0 - - 10 - - - -
08/06:30pm 27.1 NNE 11 15 1009.4 - 0.0 - - 10 - - - -
08/06:00pm 28.2 NNE 11 14 1009.1 - 0.0 - - 10 - - - -
08/05:30pm 29.6 NNE 12 16 1008.9 - 0.0 - - 10 - - - -
08/05:00pm 31.1 NNE 10 15 1008.5 - 0.0 - - 10 - - - -
08/04:30pm 31.9 NNE 9 13 1008.3 - 0.0 - - 10 - - - -
08/04:00pm 33.0 E 12 17 1008.1 - 0.0 - - 10 - - - -
08/03:30pm 32.8 ESE 12 16 1008.0 - 0.0 - - 10 - - - -
08/03:00pm 33.1 ESE 11 16 1008.2 - 0.0 - - 10 - - - -
08/02:30pm 32.4 E 10 14 1008.5 - 0.0 - - 10 - - - -
08/02:00pm 33.3 SE 10 17 1008.9 - 0.0 - - 10 - - - -
08/01:30pm 33.6 ESE 11 19 1009.3 - 0.0 - - 10 - - - -
08/01:00pm 32.1 E 11 16 1009.7 - 0.0 - - 10 - - - -
08/12:30pm 33.6 ESE 9 15 1010.0 - 0.0 - - 10 - - - -
08/12:00pm 32.3 E 9 15 1010.3 - 0.0 - - 10 - - - -
08/11:30am 31.8 SE 10 15 1010.9 - 0.0 - Partly cloudy 10 - - - -
08/11:00am 32.4 E 8 19 1011.2 - 0.0 - - 10 - - - -
08/10:30am 32.2 E 9 15 1011.5 - 0.0 - - 10 - - - -
08/10:00am 31.4 E 9 11 1011.8 - 0.0 - - 10 - - - -
08/09:30am 31.1 SSE 5 8 1011.9 - 0.0 - Partly cloudy 10 - - - -
08/09:00am 29.7 ENE 7 11 1012.2 - 0.0 - Mostly clear 10 - - - -
08/08:30am 28.6 NE 5 8 1012.3 - 0.0 - Partly cloudy 10 - - - -
08/08:00am 28.1 NE 6 10 1012.2 - 0.0 - - 10 - - - -
08/07:30am 27.2 E 4 6 1012.2 - 0.0 - Partly cloudy 10 - - - -
08/07:00am 25.4 S 3 5 1012.2 - 0.0 - Partly cloudy 10 - - - -
08/06:30am 22.0 SSE 4 5 1012.2 - 0.0 - Partly cloudy 10 - - - -
08/06:00am 21.4 S 5 5 1011.8 - 0.0 - - 10 - - - -
08/05:30am 20.4 CALM 0 0 1011.4 - 0.0 - - 10 - - - -
08/05:00am 20.4 CALM 0 0 1011.2 - 0.0 - - 10 - - - -
08/04:30am 20.6 CALM 0 0 1010.7 - 0.0 - - 10 - - - -
08/04:00am 21.2 SSW 1 3 1010.7 - 0.0 - - 10 - - - -
08/03:30am 21.0 CALM 0 0 1010.6 - 0.0 - - 10 - - - -
08/03:00am 21.1 CALM 0 0 1010.5 - 0.0 - - 10 - - - -
08/02:30am 21.0 SW 2 3 1010.6 - 0.0 - - 10 - - - -
08/02:00am 22.1 CALM 0 3 1010.7 - 0.0 - - 10 - - - -
08/01:30am 21.8 CALM 0 0 1010.8 - 0.0 - - 10 - - - -
08/01:00am 21.8 CALM 0 0 1011.2 - 0.0 - - 10 - - - -
08/12:30am 21.8 CALM 0 4 1011.8 - 0.0 - - 10 - - - -
08/12:00am 21.8 CALM 0 0 1012.1 - 0.0 - - 10 - - - -
 
Date/Time
EST
Temp
°C
Wind Pressure Rain since
9am
mm
Weather Cloud Vis
km
Sea
Height
m
Swell
Dir  Spd
kts
Gust
kts
hPa Trend Height
m
Period
s
Dir
07/11:30pm 22.1 W 1 4 1012.4 - 0.0 - - 10 - - - -
07/11:00pm 22.8 CALM 0 0 1012.6 - 0.0 - - 10 - - - -

Other Formats:

Comma delimited format used in spreadsheet applications
http://www.bom.gov.au/fwo/IDQ60701/IDQ60701.94365.axf

JavaScript Object Notation format (JSON) in row-major order
http://www.bom.gov.au/fwo/IDQ60701/IDQ60701.94365.json